Brock, Texas
Current Conditions -  °F | °C
As of 8:15 PM on Wednesday 17 Dec 2014 (Local Time) from KGDJ Reporting Station
Drizzle Drizzle  
Wind Chill: 45°   Ceiling: 400
Heat Index: 45°   Visibility: 3mi
Dew Point: 43°   Wind: 3mph
Humidity: 93%   Direction: 70°ENE
Pressure: 30.15"   Gusts: NA
Location:  32.6854°N, 97.7998°W
Report Text: KGDJ 180215Z AUTO 07003KT 3SM -DZ OVC004 07/06 A3015 RMK AO2 T00730062
Loading
Personal Weather Stations






























Interactive Weather Map New forecast layout! Learn more

10-Day Weather Forecast

Advertisements
Track Severe Weather on mobile